createdAt,value
2022-11-29T00:01:38.975Z,35.92
2022-11-29T00:04:08.544Z,44.45
2022-11-29T00:06:36.581Z,44.90
2022-11-29T00:09:08.090Z,49.97
2022-11-29T00:11:36.779Z,53.90
2022-11-29T00:14:05.202Z,44.25
2022-11-29T00:16:32.244Z,45.28
2022-11-29T00:18:59.076Z,43.95
2022-11-29T00:21:29.569Z,51.58
2022-11-29T00:23:56.470Z,45.45
2022-11-29T00:26:25.117Z,47.20
2022-11-29T00:28:52.377Z,48.15
2022-11-29T00:31:22.481Z,37.50
2022-11-29T00:33:50.008Z,47.30
2022-11-29T00:36:20.414Z,47.53
2022-11-29T00:38:54.365Z,43.08
2022-11-29T00:41:21.304Z,52.95
2022-11-29T00:43:48.029Z,49.67
2022-11-29T00:46:15.403Z,48.08
2022-11-29T00:48:47.961Z,41.78
2022-11-29T00:51:16.533Z,46.53
2022-11-29T00:53:43.297Z,43.75
2022-11-29T00:56:11.885Z,45.55
2022-11-29T00:58:38.877Z,44.78
2022-11-29T01:01:06.342Z,45.45
2022-11-29T01:03:34.664Z,39.47
2022-11-29T01:06:01.996Z,46.20
2022-11-29T01:08:29.085Z,40.45
2022-11-29T01:11:08.045Z,40.55
2022-11-29T01:13:40.815Z,41.47
2022-11-29T01:16:08.532Z,37.13
2022-11-29T01:18:36.143Z,35.97
2022-11-29T01:21:05.104Z,32.90
2022-11-29T01:23:32.495Z,41.70
2022-11-29T01:26:01.541Z,31.65
2022-11-29T01:28:30.307Z,41.47
2022-11-29T01:31:05.899Z,40.55
2022-11-29T01:33:32.762Z,33.75
2022-11-29T01:35:59.461Z,42.33
2022-11-29T01:38:26.310Z,41.40
2022-11-29T01:41:00.506Z,44.00
2022-11-29T01:43:29.588Z,39.13
2022-11-29T01:45:58.322Z,40.58
2022-11-29T01:48:28.406Z,37.17
2022-11-29T01:51:08.523Z,32.97
2022-11-29T01:53:49.433Z,42.28
2022-11-29T01:56:19.084Z,40.17
2022-11-29T01:58:46.312Z,39.60
2022-11-29T02:01:16.314Z,35.33
2022-11-29T02:03:43.566Z,34.25
2022-11-29T02:06:10.933Z,32.97
2022-11-29T02:08:43.034Z,45.45
2022-11-29T02:11:43.517Z,44.63
2022-11-29T02:14:23.941Z,38.65
2022-11-29T02:16:58.191Z,38.35
2022-11-29T02:19:55.142Z,42.13
2022-11-29T02:22:29.936Z,40.72
2022-11-29T02:25:12.907Z,63.92
2022-11-29T02:28:16.500Z,52.00
2022-11-29T02:31:08.934Z,53.58
2022-11-29T02:34:04.596Z,50.67
2022-11-29T02:36:57.033Z,48.88
2022-11-29T02:39:46.707Z,55.45
2022-11-29T02:42:41.375Z,49.50
2022-11-29T02:45:17.403Z,51.35
2022-11-29T02:47:59.558Z,55.60
2022-11-29T02:50:38.852Z,64.97
2022-11-29T02:53:15.474Z,64.00
2022-11-29T02:55:53.535Z,62.35
2022-11-29T02:58:26.906Z,64.90
2022-11-29T03:01:02.706Z,62.53
2022-11-29T03:03:37.791Z,76.18
2022-11-29T03:06:16.951Z,71.43
2022-11-29T03:08:52.852Z,67.47
2022-11-29T03:11:29.110Z,67.30
2022-11-29T03:14:14.227Z,71.75
2022-11-29T03:16:46.973Z,71.45
2022-11-29T03:19:35.797Z,68.68
2022-11-29T03:22:12.025Z,69.28
2022-11-29T03:24:45.443Z,64.32
2022-11-29T03:27:16.607Z,78.35
2022-11-29T03:29:49.490Z,65.53
2022-11-29T03:32:21.751Z,69.65
2022-11-29T03:34:59.457Z,83.57
2022-11-29T03:37:38.273Z,75.10
2022-11-29T03:40:10.753Z,79.60
2022-11-29T03:45:17.609Z,81.95
2022-11-29T03:47:51.461Z,83.82
2022-11-29T03:50:23.372Z,85.47
2022-11-29T03:52:55.942Z,86.77
2022-11-29T03:58:17.497Z,97.25
2022-11-29T04:01:04.761Z,92.05
2022-11-29T04:03:54.003Z,114.25
2022-11-29T04:06:35.164Z,107.63
2022-11-29T04:09:34.536Z,112.45
2022-11-29T04:12:30.508Z,86.05
2022-11-29T04:15:44.819Z,104.22
2022-11-29T04:18:56.334Z,103.45
2022-11-29T04:21:37.911Z,108.03
2022-11-29T04:24:34.937Z,123.13
2022-11-29T04:27:36.578Z,101.15
2022-11-29T04:30:19.671Z,120.03
2022-11-29T04:33:13.005Z,101.05
2022-11-29T04:36:05.216Z,113.15
2022-11-29T04:38:51.466Z,122.20
2022-11-29T04:41:31.714Z,121.10
2022-11-29T04:44:18.744Z,140.35
2022-11-29T04:47:02.876Z,121.68
2022-11-29T04:49:53.460Z,131.82
2022-11-29T04:52:36.788Z,128.95
2022-11-29T04:55:27.677Z,127.70
2022-11-29T04:58:09.494Z,131.57
2022-11-29T05:00:49.750Z,140.57
2022-11-29T05:03:34.817Z,120.55
2022-11-29T05:06:14.900Z,130.02
2022-11-29T05:08:50.541Z,128.38
2022-11-29T05:11:26.917Z,116.75
2022-11-29T05:14:02.298Z,117.93
2022-11-29T05:16:44.931Z,147.38
2022-11-29T05:19:34.406Z,136.27
2022-11-29T05:22:14.126Z,114.22
2022-11-29T05:24:52.269Z,135.18
2022-11-29T05:27:33.188Z,132.52
2022-11-29T05:30:11.139Z,130.85
2022-11-29T05:32:49.591Z,121.93
2022-11-29T05:35:34.385Z,132.38
2022-11-29T05:38:12.047Z,133.57
2022-11-29T05:40:46.043Z,129.73
2022-11-29T05:43:47.505Z,131.32
2022-11-29T05:46:21.488Z,136.80
2022-11-29T05:48:58.847Z,138.18
2022-11-29T05:51:39.138Z,153.95
2022-11-29T05:54:18.515Z,147.98
2022-11-29T05:56:56.400Z,157.48
2022-11-29T05:59:27.691Z,140.52
2022-11-29T06:02:04.094Z,140.40
2022-11-29T06:04:51.445Z,145.65
2022-11-29T06:07:23.269Z,156.48
2022-11-29T06:10:00.610Z,143.80
2022-11-29T06:12:29.663Z,139.00
2022-11-29T06:15:20.550Z,147.43
2022-11-29T06:18:01.976Z,146.35
2022-11-29T06:20:58.577Z,149.80
2022-11-29T06:23:51.629Z,154.90
2022-11-29T06:29:00.619Z,134.80
2022-11-29T06:31:32.464Z,163.45
2022-11-29T06:34:06.602Z,157.50
2022-11-29T06:36:42.166Z,165.88
2022-11-29T06:39:10.514Z,137.23
2022-11-29T06:41:37.577Z,146.77
2022-11-29T06:44:05.039Z,178.90
2022-11-29T06:46:43.470Z,139.80
2022-11-29T06:49:14.648Z,144.48
2022-11-29T06:51:52.246Z,178.45
2022-11-29T06:54:38.463Z,155.95
2022-11-29T06:57:12.965Z,160.50
2022-11-29T06:59:52.517Z,137.73
2022-11-29T07:02:36.463Z,136.20
2022-11-29T07:05:14.989Z,137.77
2022-11-29T07:07:43.909Z,131.20
2022-11-29T07:10:15.859Z,141.35
2022-11-29T07:12:44.038Z,135.75
2022-11-29T07:15:14.654Z,136.00
2022-11-29T07:17:54.276Z,152.73
2022-11-29T07:20:27.805Z,149.98
2022-11-29T07:23:06.491Z,133.52
2022-11-29T07:25:42.039Z,131.98
2022-11-29T07:28:18.199Z,135.57
2022-11-29T07:30:54.840Z,124.38
2022-11-29T07:33:33.162Z,141.43
2022-11-29T07:36:08.455Z,125.72
2022-11-29T07:38:47.086Z,149.07
2022-11-29T07:41:21.596Z,140.57
2022-11-29T07:43:57.392Z,140.05
2022-11-29T07:46:24.145Z,152.38
2022-11-29T07:48:51.117Z,139.13
2022-11-29T07:51:17.964Z,155.60
2022-11-29T07:53:46.020Z,140.50
2022-11-29T07:56:13.002Z,149.50
2022-11-29T07:58:40.137Z,149.93
2022-11-29T08:01:07.028Z,135.48
2022-11-29T08:03:34.583Z,153.15
2022-11-29T08:06:01.702Z,141.52
2022-11-29T08:08:28.307Z,131.43
2022-11-29T08:10:56.356Z,129.25
2022-11-29T08:13:23.363Z,137.50
2022-11-29T08:15:50.128Z,141.23
2022-11-29T08:18:17.191Z,139.75
2022-11-29T08:20:44.506Z,140.93
2022-11-29T08:23:12.879Z,145.32
2022-11-29T08:25:39.940Z,130.88
2022-11-29T08:28:08.519Z,124.15
2022-11-29T08:30:37.412Z,120.82
2022-11-29T08:33:04.799Z,104.85
2022-11-29T08:35:31.732Z,102.38
2022-11-29T08:37:58.873Z,101.97
2022-11-29T08:40:25.556Z,90.43
2022-11-29T08:42:52.462Z,99.47
2022-11-29T08:45:28.221Z,94.28
2022-11-29T08:47:54.925Z,92.38
2022-11-29T08:50:22.034Z,91.70
2022-11-29T08:52:49.681Z,85.13
2022-11-29T08:55:16.741Z,89.20
2022-11-29T08:57:43.560Z,88.95
2022-11-29T09:00:11.557Z,84.70
2022-11-29T09:02:40.389Z,88.78
2022-11-29T09:05:09.275Z,88.65
2022-11-29T09:07:36.257Z,91.30
2022-11-29T09:10:03.237Z,91.43
2022-11-29T09:12:30.048Z,82.95
2022-11-29T09:14:56.890Z,86.70
2022-11-29T09:17:23.619Z,91.63
2022-11-29T09:19:51.920Z,87.90
2022-11-29T09:22:18.484Z,104.63
2022-11-29T09:24:45.454Z,102.63
2022-11-29T09:27:13.728Z,93.88
2022-11-29T09:29:40.630Z,99.50
2022-11-29T09:32:07.199Z,95.05
2022-11-29T09:34:34.099Z,95.03
2022-11-29T09:37:02.149Z,90.70
2022-11-29T09:39:29.379Z,87.85
2022-11-29T09:42:37.301Z,91.35
2022-11-29T09:45:07.969Z,88.32
2022-11-29T09:47:58.059Z,95.40
2022-11-29T09:50:31.301Z,90.53
2022-11-29T09:53:17.410Z,89.65
2022-11-29T09:55:59.624Z,91.78
2022-11-29T09:58:31.662Z,87.80
2022-11-29T10:01:02.774Z,86.20
2022-11-29T10:03:34.767Z,83.55
2022-11-29T10:06:07.198Z,88.90
2022-11-29T10:08:40.799Z,77.97
2022-11-29T10:11:20.694Z,81.63
2022-11-29T10:13:52.089Z,76.20
2022-11-29T10:16:25.295Z,77.55
2022-11-29T10:18:58.813Z,76.45
2022-11-29T10:21:32.527Z,82.47
2022-11-29T10:24:07.043Z,70.25
2022-11-29T10:26:35.469Z,72.93
2022-11-29T10:29:02.486Z,75.95
2022-11-29T10:31:33.058Z,74.05
2022-11-29T10:34:02.206Z,81.00
2022-11-29T10:36:34.697Z,77.85
2022-11-29T10:39:08.806Z,75.03
2022-11-29T10:41:40.086Z,76.18
2022-11-29T10:44:16.030Z,75.00
2022-11-29T10:46:43.015Z,72.78
2022-11-29T10:49:14.917Z,76.15
2022-11-29T10:51:43.435Z,79.82
2022-11-29T10:54:28.763Z,80.50
2022-11-29T10:56:57.314Z,82.40
2022-11-29T10:59:27.204Z,86.05
2022-11-29T11:01:54.666Z,83.00
2022-11-29T11:04:29.815Z,84.07
2022-11-29T11:07:07.394Z,89.93
2022-11-29T11:09:46.079Z,96.88
2022-11-29T11:12:19.165Z,90.32
2022-11-29T11:14:46.823Z,86.63
2022-11-29T11:17:22.537Z,87.85
2022-11-29T11:19:55.464Z,84.25
2022-11-29T11:22:29.783Z,93.18
2022-11-29T11:25:05.072Z,88.90
2022-11-29T11:27:36.179Z,96.45
2022-11-29T11:30:22.581Z,93.93
2022-11-29T11:33:07.835Z,101.72
2022-11-29T11:35:34.737Z,95.45
2022-11-29T11:38:01.395Z,94.18
2022-11-29T11:40:30.922Z,93.18
2022-11-29T11:43:01.146Z,88.93
2022-11-29T11:45:33.466Z,80.38
2022-11-29T11:48:03.783Z,77.90
2022-11-29T11:50:35.170Z,76.28
2022-11-29T11:53:05.204Z,64.75
2022-11-29T11:55:40.343Z,61.20
2022-11-29T11:58:17.049Z,65.38
2022-11-29T12:01:04.038Z,64.63
2022-11-29T12:03:43.884Z,65.22
2022-11-29T12:06:27.125Z,69.22
2022-11-29T12:08:58.326Z,62.70
2022-11-29T12:11:31.997Z,70.18
2022-11-29T12:14:02.043Z,64.35
2022-11-29T12:16:35.242Z,62.03
2022-11-29T12:19:11.910Z,68.32
2022-11-29T12:21:43.625Z,69.00
2022-11-29T12:24:20.378Z,72.33
2022-11-29T12:26:58.597Z,75.13
2022-11-29T12:29:28.575Z,68.47
2022-11-29T12:32:06.900Z,72.70
2022-11-29T12:34:49.988Z,71.93
2022-11-29T12:37:25.608Z,86.40
2022-11-29T12:39:57.364Z,80.47
2022-11-29T12:42:44.152Z,84.23
2022-11-29T12:45:34.297Z,73.93
2022-11-29T12:48:14.063Z,73.82
2022-11-29T12:50:52.320Z,81.72
2022-11-29T12:53:32.954Z,81.72
2022-11-29T12:56:09.423Z,79.85
2022-11-29T12:58:53.408Z,77.50
2022-11-29T13:01:31.290Z,89.72
2022-11-29T13:04:08.834Z,81.60
2022-11-29T13:06:43.935Z,83.47
2022-11-29T13:09:38.666Z,78.47
2022-11-29T13:12:13.393Z,78.72
2022-11-29T13:14:47.581Z,87.00
2022-11-29T13:17:27.699Z,85.30
2022-11-29T13:20:00.037Z,86.90
2022-11-29T13:22:36.728Z,87.88
2022-11-29T13:25:12.281Z,89.38
2022-11-29T13:27:43.149Z,87.35
2022-11-29T13:30:16.290Z,88.28
2022-11-29T13:32:52.835Z,78.55
2022-11-29T13:35:24.622Z,80.68
2022-11-29T13:37:55.654Z,83.47
2022-11-29T13:40:35.233Z,78.93
2022-11-29T13:43:11.217Z,79.32
2022-11-29T13:45:46.689Z,81.18
2022-11-29T13:48:33.546Z,78.60
2022-11-29T13:51:25.900Z,75.82
2022-11-29T13:53:54.163Z,79.57
2022-11-29T13:56:27.797Z,79.95
2022-11-29T14:01:22.855Z,80.97
2022-11-29T14:04:03.634Z,83.25
2022-11-29T14:06:34.873Z,80.50
2022-11-29T14:09:25.384Z,75.95
2022-11-29T14:12:00.785Z,80.43
2022-11-29T14:14:32.771Z,81.75
2022-11-29T14:17:02.628Z,82.53
2022-11-29T14:19:33.841Z,90.05
2022-11-29T14:22:28.036Z,75.10
2022-11-29T14:25:49.304Z,77.05
2022-11-29T14:30:51.937Z,64.18
2022-11-29T14:33:52.436Z,48.30
2022-11-29T14:36:27.770Z,46.53
2022-11-29T14:39:04.448Z,52.33
2022-11-29T14:41:42.905Z,45.20
2022-11-29T14:44:21.851Z,47.60
2022-11-29T14:46:59.172Z,49.08
2022-11-29T14:49:29.437Z,56.28
2022-11-29T14:52:07.756Z,56.13
2022-11-29T14:54:35.857Z,55.58
2022-11-29T14:57:32.337Z,46.83
2022-11-29T15:00:01.636Z,48.55
2022-11-29T15:02:32.408Z,55.63
2022-11-29T15:05:14.495Z,54.35
2022-11-29T15:07:46.573Z,56.17
2022-11-29T15:10:22.628Z,57.78
2022-11-29T15:12:52.640Z,53.08
2022-11-29T15:15:38.036Z,58.67
2022-11-29T15:18:17.388Z,55.88
2022-11-29T15:21:00.354Z,53.33
2022-11-29T15:23:28.055Z,47.08
2022-11-29T15:26:00.541Z,48.83
2022-11-29T15:28:28.740Z,49.53
2022-11-29T15:31:03.961Z,44.30
2022-11-29T15:33:30.897Z,44.60
2022-11-29T15:36:05.901Z,44.65
2022-11-29T15:38:42.154Z,46.40
2022-11-29T15:41:22.076Z,44.05
2022-11-29T15:43:52.477Z,44.65
2022-11-29T15:46:20.199Z,44.53
2022-11-29T15:48:46.973Z,42.88
2022-11-29T15:51:25.072Z,43.40
2022-11-29T15:54:12.288Z,45.20
2022-11-29T15:56:43.950Z,45.95
2022-11-29T15:59:18.316Z,43.83
2022-11-29T16:01:52.306Z,44.22
2022-11-29T16:04:21.380Z,50.38
2022-11-29T16:06:49.951Z,42.65
2022-11-29T16:09:36.143Z,45.05
2022-11-29T16:12:03.642Z,43.08
2022-11-29T16:14:30.792Z,47.00
2022-11-29T16:16:59.768Z,45.55
2022-11-29T16:19:31.855Z,52.05
2022-11-29T16:22:08.092Z,52.28
2022-11-29T16:24:36.529Z,46.42
2022-11-29T16:27:04.572Z,51.45
2022-11-29T16:29:35.584Z,46.10
2022-11-29T16:32:13.613Z,41.78
2022-11-29T16:34:42.650Z,47.55
2022-11-29T16:37:16.740Z,47.60
2022-11-29T16:39:46.432Z,45.60
2022-11-29T16:42:20.541Z,46.60
2022-11-29T16:45:06.295Z,47.75
2022-11-29T16:50:15.685Z,47.20
2022-11-29T16:52:44.083Z,41.40
2022-11-29T16:55:11.142Z,49.97
2022-11-29T16:57:38.421Z,49.83
2022-11-29T17:00:21.233Z,48.17
2022-11-29T17:02:48.280Z,47.67
2022-11-29T17:05:15.177Z,48.28
2022-11-29T17:07:43.513Z,47.35
2022-11-29T17:10:16.592Z,49.30
2022-11-29T17:12:47.761Z,47.83
2022-11-29T17:15:15.212Z,47.47
2022-11-29T17:17:42.968Z,44.47
2022-11-29T17:20:11.579Z,49.00
2022-11-29T17:22:38.310Z,47.35
2022-11-29T17:25:07.469Z,41.92
2022-11-29T17:27:35.074Z,49.10
2022-11-29T17:30:02.632Z,93.13
2022-11-29T17:32:29.572Z,93.25
2022-11-29T17:34:56.588Z,89.43
2022-11-29T17:37:23.143Z,69.80
2022-11-29T17:39:52.334Z,53.83
2022-11-29T17:42:20.411Z,48.33
2022-11-29T17:44:47.159Z,51.90
2022-11-29T17:47:14.008Z,42.03
2022-11-29T17:49:40.657Z,41.55
2022-11-29T17:52:07.264Z,45.83
2022-11-29T17:54:34.174Z,42.88
2022-11-29T17:57:00.881Z,42.65
2022-11-29T17:59:29.254Z,44.83
2022-11-29T18:01:55.969Z,38.60
2022-11-29T18:04:22.834Z,43.58
2022-11-29T18:06:50.509Z,43.72
2022-11-29T18:09:18.322Z,46.15
2022-11-29T18:11:49.356Z,48.00
2022-11-29T18:14:19.019Z,46.78
2022-11-29T18:16:47.208Z,42.17
2022-11-29T18:19:17.117Z,36.03
2022-11-29T18:21:43.921Z,40.83
2022-11-29T18:24:10.780Z,40.58
2022-11-29T18:26:38.707Z,39.05
2022-11-29T18:29:06.259Z,38.20
2022-11-29T18:31:35.450Z,34.33
2022-11-29T18:34:05.489Z,33.22
2022-11-29T18:36:34.579Z,37.20
2022-11-29T18:39:03.715Z,38.88
2022-11-29T18:41:32.511Z,39.38
2022-11-29T18:44:01.085Z,46.17
2022-11-29T18:46:29.279Z,51.15
2022-11-29T18:48:56.348Z,49.58
2022-11-29T18:51:24.868Z,48.55
2022-11-29T18:53:51.397Z,47.92
2022-11-29T18:56:21.097Z,53.38
2022-11-29T18:58:58.024Z,57.28
2022-11-29T19:01:27.009Z,56.40
2022-11-29T19:03:56.716Z,53.70
2022-11-29T19:06:26.263Z,60.70
2022-11-29T19:08:53.665Z,64.13
2022-11-29T19:11:22.420Z,66.45
2022-11-29T19:13:53.306Z,62.42
2022-11-29T19:16:20.101Z,75.88
2022-11-29T19:18:51.365Z,72.05
2022-11-29T19:21:19.510Z,78.72
2022-11-29T19:23:52.131Z,94.72
2022-11-29T19:28:46.434Z,91.78
2022-11-29T19:31:15.422Z,100.22
2022-11-29T19:33:43.276Z,102.38
2022-11-29T19:36:12.643Z,109.65
2022-11-29T19:38:40.032Z,104.75
2022-11-29T19:41:12.960Z,102.05
2022-11-29T19:43:40.458Z,101.15
2022-11-29T19:46:08.768Z,102.90
2022-11-29T19:48:35.524Z,100.95
2022-11-29T19:51:02.597Z,107.32
2022-11-29T19:53:29.356Z,96.68
2022-11-29T19:55:56.269Z,101.82
2022-11-29T19:58:24.442Z,98.53
2022-11-29T20:00:51.428Z,99.72
2022-11-29T20:03:18.072Z,96.05
2022-11-29T20:05:53.390Z,97.43
2022-11-29T20:08:22.105Z,94.78
2022-11-29T20:10:48.930Z,86.65
2022-11-29T20:13:15.661Z,83.82
2022-11-29T20:15:43.751Z,84.28
2022-11-29T20:18:10.519Z,95.90
2022-11-29T20:20:37.362Z,95.50
2022-11-29T20:23:04.323Z,88.38
2022-11-29T20:25:31.317Z,90.20
2022-11-29T20:27:58.036Z,91.15
2022-11-29T20:30:24.835Z,87.15
2022-11-29T20:32:53.198Z,90.22
2022-11-29T20:35:20.510Z,101.65
2022-11-29T20:38:09.729Z,94.75
2022-11-29T20:40:43.658Z,98.38
2022-11-29T20:43:15.736Z,94.15
2022-11-29T20:45:42.852Z,93.50
2022-11-29T20:48:16.980Z,96.32
2022-11-29T20:50:46.997Z,91.90
2022-11-29T20:53:29.833Z,95.65
2022-11-29T20:55:56.531Z,96.28
2022-11-29T20:58:23.144Z,87.53
2022-11-29T21:00:49.763Z,104.40
2022-11-29T21:03:19.133Z,99.45
2022-11-29T21:05:46.454Z,94.32
2022-11-29T21:08:15.915Z,91.25
2022-11-29T21:10:42.764Z,98.03
2022-11-29T21:13:11.949Z,97.97
2022-11-29T21:15:39.820Z,96.60
2022-11-29T21:18:07.720Z,93.57
2022-11-29T21:20:36.468Z,104.13
2022-11-29T21:23:09.125Z,98.40
2022-11-29T21:25:44.704Z,100.30
2022-11-29T21:28:13.796Z,94.05
2022-11-29T21:30:41.836Z,103.85
2022-11-29T21:33:09.933Z,97.45
2022-11-29T21:35:38.685Z,103.88
2022-11-29T21:38:06.692Z,94.93
2022-11-29T21:40:33.310Z,102.78
2022-11-29T21:42:59.932Z,94.72
2022-11-29T21:45:27.183Z,102.68
2022-11-29T21:47:53.797Z,97.00
2022-11-29T21:50:22.777Z,102.60
2022-11-29T21:52:52.344Z,101.22
2022-11-29T21:55:18.936Z,100.53
2022-11-29T21:57:45.774Z,106.88
2022-11-29T22:00:13.479Z,102.07
2022-11-29T22:02:41.013Z,111.03
2022-11-29T22:05:08.131Z,102.63
2022-11-29T22:07:34.921Z,119.18
2022-11-29T22:10:07.151Z,105.07
2022-11-29T22:12:36.797Z,127.82
2022-11-29T22:15:03.857Z,117.28
2022-11-29T22:17:30.600Z,109.95
2022-11-29T22:19:57.174Z,116.55
2022-11-29T22:22:28.128Z,111.15
2022-11-29T22:24:55.167Z,124.43
2022-11-29T22:27:23.402Z,110.93
2022-11-29T22:29:49.946Z,118.15
2022-11-29T22:32:16.592Z,109.90
2022-11-29T22:34:43.371Z,122.35
2022-11-29T22:37:10.126Z,115.25
2022-11-29T22:39:36.862Z,122.95
2022-11-29T22:42:03.612Z,111.20
2022-11-29T22:44:32.438Z,122.13
2022-11-29T22:46:59.151Z,119.18
2022-11-29T22:49:26.000Z,120.93
2022-11-29T22:51:53.498Z,124.78
2022-11-29T22:54:20.961Z,138.35
2022-11-29T22:56:47.845Z,133.88
2022-11-29T22:59:14.823Z,131.15
2022-11-29T23:01:43.105Z,126.20
2022-11-29T23:04:11.550Z,133.93
2022-11-29T23:06:40.134Z,136.43
2022-11-29T23:09:09.532Z,123.43
2022-11-29T23:11:38.215Z,124.93
2022-11-29T23:14:04.754Z,124.75
2022-11-29T23:16:31.670Z,133.88
2022-11-29T23:19:01.316Z,117.50
2022-11-29T23:21:29.896Z,127.72
2022-11-29T23:23:57.243Z,122.13
2022-11-29T23:26:26.325Z,115.45
2022-11-29T23:28:54.197Z,125.57
2022-11-29T23:31:22.438Z,116.05
2022-11-29T23:33:50.379Z,131.05
2022-11-29T23:36:18.715Z,123.57
2022-11-29T23:38:47.700Z,125.80
2022-11-29T23:41:14.740Z,129.98
2022-11-29T23:43:42.795Z,122.07
2022-11-29T23:46:13.036Z,121.05
2022-11-29T23:48:39.964Z,114.15
2022-11-29T23:51:06.813Z,127.90
2022-11-29T23:53:34.823Z,120.43
2022-11-29T23:56:03.218Z,127.22
2022-11-29T23:58:30.872Z,131.98
